Time;durP1;ratioP1;P1;durP2;ratioP2;P2;SDS_P1;SDS_P2;PMS_P1;PMS_P2;Temp;Humidity;BMP_temperature;BMP_pressure;BME280_temperature;BME280_humidity;BME280_pressure;Samples;Min_cycle;Max_cycle;Signal;HPM_P1;HPM_P2
2022/08/02 00:02:18;;;;;;;3.72;1.98;;;22.70;96.00;;;;;;5053225;28;20055;-74
2022/08/02 00:04:45;;;;;;;3.25;1.10;;;22.70;96.40;;;;;;5054261;28;20021;-74
2022/08/02 00:07:10;;;;;;;5.60;1.98;;;22.50;96.80;;;;;;5053998;28;20036;-74
2022/08/02 00:09:36;;;;;;;4.30;1.58;;;22.50;96.80;;;;;;5054078;28;20048;-74
2022/08/02 00:12:03;;;;;;;3.00;1.65;;;22.40;97.10;;;;;;5054037;28;20029;-74
2022/08/02 00:14:29;;;;;;;5.00;1.83;;;22.50;97.10;;;;;;5053787;28;20059;-74
2022/08/02 00:16:54;;;;;;;3.83;1.48;;;22.50;97.20;;;;;;5053924;28;20410;-74
2022/08/02 00:19:20;;;;;;;3.83;1.65;;;22.40;97.60;;;;;;5054081;28;20068;-74
2022/08/02 00:21:46;;;;;;;5.95;1.75;;;22.40;97.40;;;;;;5053835;28;20025;-74
2022/08/02 00:24:11;;;;;;;4.60;1.85;;;22.00;97.70;;;;;;5053652;28;20021;-74
2022/08/02 00:26:37;;;;;;;2.85;1.85;;;22.10;98.10;;;;;;5053896;28;20509;-73
2022/08/02 00:29:03;;;;;;;2.65;1.33;;;22.10;98.20;;;;;;5053775;28;20142;-74
2022/08/02 00:31:29;;;;;;;6.13;1.75;;;22.20;98.00;;;;;;5053559;28;20062;-74
2022/08/02 00:33:55;;;;;;;5.88;1.65;;;22.20;98.10;;;;;;5053606;28;20100;-74
2022/08/02 00:36:30;;;;;;;5.88;1.73;;;22.20;97.50;;;;;;5053313;28;20028;-74
2022/08/02 00:38:55;;;;;;;6.07;2.10;;;22.30;97.60;;;;;;5053471;28;20044;-74
2022/08/02 00:41:22;;;;;;;4.50;1.98;;;22.00;97.80;;;;;;5053680;28;20029;-74
2022/08/02 00:43:49;;;;;;;3.15;1.50;;;22.10;98.30;;;;;;5053443;28;20391;-74
2022/08/02 00:46:16;;;;;;;2.97;1.65;;;22.10;98.00;;;;;;5053340;28;20025;-74
2022/08/02 00:48:41;;;;;;;3.42;1.60;;;22.10;98.10;;;;;;5053306;28;20036;-73
2022/08/02 00:51:07;;;;;;;3.35;1.90;;;22.20;98.10;;;;;;5053162;28;20037;-74
2022/08/02 00:53:33;;;;;;;4.47;1.55;;;21.90;98.70;;;;;;5053278;28;20086;-73
2022/08/02 00:55:59;;;;;;;3.20;1.70;;;21.70;99.10;;;;;;5053175;28;20025;-73
2022/08/02 00:58:26;;;;;;;3.90;1.55;;;21.80;99.10;;;;;;5053012;28;20082;-73
2022/08/02 01:00:51;;;;;;;5.72;1.85;;;21.80;99.50;;;;;;5053080;28;20021;-73
2022/08/02 01:03:17;;;;;;;3.22;1.42;;;21.40;99.90;;;;;;5053079;28;20074;-74
2022/08/02 01:05:43;;;;;;;5.57;1.75;;;21.40;99.90;;;;;;5052814;28;20046;-74
2022/08/02 01:08:09;;;;;;;4.43;1.60;;;21.60;99.90;;;;;;5052909;28;20044;-73
2022/08/02 01:10:35;;;;;;;6.55;1.98;;;20.80;99.90;;;;;;5053113;28;20479;-74
2022/08/02 01:13:00;;;;;;;7.70;2.00;;;20.60;99.90;;;;;;5052855;28;20084;-73
2022/08/02 01:15:27;;;;;;;4.35;2.10;;;20.50;99.90;;;;;;5052981;28;20064;-73
2022/08/02 01:18:04;;;;;;;5.95;2.03;;;20.60;99.90;;;;;;5053170;28;20099;-73
2022/08/02 01:21:00;;;;;;;10.02;2.38;;;20.70;99.90;;;;;;5052964;28;20029;-73
2022/08/02 01:23:56;;;;;;;4.82;2.20;;;20.60;99.90;;;;;;5052928;28;20122;-73
2022/08/02 01:26:40;;;;;;;4.35;2.17;;;20.70;99.90;;;;;;5052893;28;20032;-73
2022/08/02 01:29:08;;;;;;;;;;;20.40;99.90;;;;;;5053363;28;20064;-73
2022/08/02 01:31:39;;;;;;;7.25;2.33;;;20.30;99.90;;;;;;5052638;28;20000;-73
2022/08/02 01:34:31;;;;;;;3.70;2.13;;;20.30;99.90;;;;;;5052753;28;20494;-73
2022/08/02 01:37:17;;;;;;;3.72;1.98;;;20.30;99.90;;;;;;5052538;28;20021;-73
2022/08/02 01:39:44;;;;;;;5.00;2.35;;;20.40;99.90;;;;;;5052622;28;20098;-73
2022/08/02 01:42:11;;;;;;;3.38;1.98;;;20.40;99.90;;;;;;5052750;28;20509;-73
2022/08/02 01:44:40;;;;;;;3.55;1.77;;;20.50;99.90;;;;;;5052487;28;20029;-73
2022/08/02 01:47:10;;;;;;;4.90;1.90;;;20.40;99.90;;;;;;5052733;28;20024;-74
2022/08/02 01:49:38;;;;;;;3.92;1.80;;;20.50;99.90;;;;;;5052517;28;20510;-73
2022/08/02 01:52:21;;;;;;;3.75;2.15;;;20.40;99.90;;;;;;5052820;28;20025;-74
2022/08/02 01:55:11;;;;;;;4.00;1.85;;;20.20;99.90;;;;;;5052764;28;20470;-73
2022/08/02 01:57:45;;;;;;;3.58;2.05;;;20.10;99.90;;;;;;5052272;28;20104;-73
2022/08/02 02:00:12;;;;;;;6.35;2.00;;;20.20;99.90;;;;;;5052586;28;20029;-73
2022/08/02 02:02:46;;;;;;;4.07;2.40;;;20.30;99.90;;;;;;5052390;28;20437;-73
2022/08/02 02:05:15;;;;;;;4.63;1.98;;;20.20;99.90;;;;;;5052641;28;20036;-73
2022/08/02 02:07:43;;;;;;;7.55;2.30;;;20.30;99.90;;;;;;5052301;28;20096;-73
2022/08/02 02:10:13;;;;;;;6.32;2.25;;;20.00;99.90;;;;;;5052391;28;20113;-73
2022/08/02 02:12:40;;;;;;;4.20;2.00;;;19.80;99.90;;;;;;5052198;28;20021;-73
2022/08/02 02:15:10;;;;;;;4.15;2.08;;;19.60;99.90;;;;;;5052577;28;20029;-73
2022/08/02 02:17:37;;;;;;;4.03;2.50;;;19.70;99.90;;;;;;5052385;28;20029;-73
2022/08/02 02:20:04;;;;;;;3.60;2.10;;;19.60;99.90;;;;;;5052481;28;20446;-73
2022/08/02 02:22:29;;;;;;;3.78;1.70;;;19.80;99.90;;;;;;5052172;28;20021;-73
2022/08/02 02:24:55;;;;;;;5.13;2.03;;;19.90;99.90;;;;;;5053171;28;20087;-73
2022/08/02 02:27:23;;;;;;;5.97;2.00;;;20.10;99.90;;;;;;5055874;28;20028;-73
2022/08/02 02:29:50;;;;;;;3.40;2.28;;;20.10;99.90;;;;;;5056067;28;20100;-73
2022/08/02 02:32:18;;;;;;;3.47;1.63;;;20.20;99.90;;;;;;5056060;28;20488;-73
2022/08/02 02:34:47;;;;;;;4.63;2.40;;;20.10;99.90;;;;;;5055865;28;20497;-73
2022/08/02 02:37:17;;;;;;;3.85;2.15;;;19.90;99.90;;;;;;5055400;28;20029;-73
2022/08/02 02:39:44;;;;;;;5.78;2.25;;;19.90;99.90;;;;;;5055595;28;20099;-73
2022/08/02 02:42:13;;;;;;;3.83;1.75;;;19.90;99.90;;;;;;5055618;28;20055;-73
2022/08/02 02:44:40;;;;;;;4.30;1.83;;;20.10;99.90;;;;;;5055775;28;20055;-73
2022/08/02 02:47:13;;;;;;;5.70;1.70;;;20.00;99.90;;;;;;5056011;28;20035;-73
2022/08/02 02:49:41;;;;;;;5.13;2.55;;;19.90;99.90;;;;;;5055597;28;20486;-73
2022/08/02 02:52:08;;;;;;;3.70;1.73;;;19.90;99.90;;;;;;5055520;28;20076;-73
2022/08/02 02:54:37;;;;;;;4.68;2.28;;;19.80;99.90;;;;;;5055635;28;20562;-73
2022/08/02 02:57:05;;;;;;;4.97;2.33;;;19.60;99.90;;;;;;5055416;28;20028;-73
2022/08/02 02:59:33;;;;;;;3.50;2.08;;;19.40;99.90;;;;;;5055588;28;20072;-73
2022/08/02 03:02:00;;;;;;;5.38;2.33;;;19.10;99.90;;;;;;5055180;28;20112;-73
2022/08/02 03:04:30;;;;;;;3.22;1.90;;;19.40;99.90;;;;;;5044686;28;20486;-73
2022/08/02 03:06:56;;;;;;;4.55;1.52;;;19.50;99.90;;;;;;5030165;28;20087;-73
2022/08/02 03:09:27;;;;;;;3.13;1.80;;;19.50;99.90;;;;;;5030179;28;20037;-73
2022/08/02 03:11:54;;;;;;;4.07;1.73;;;19.50;99.90;;;;;;5030634;28;20707;-75
2022/08/02 03:14:20;;;;;;;3.90;1.60;;;19.40;99.90;;;;;;5030697;28;20053;-73
2022/08/02 03:16:48;;;;;;;5.35;1.73;;;19.30;99.90;;;;;;5030026;28;20037;-73
2022/08/02 03:19:15;;;;;;;3.88;2.00;;;19.30;99.90;;;;;;5028557;28;20037;-74
2022/08/02 03:21:42;;;;;;;6.70;2.30;;;19.30;99.90;;;;;;5027969;28;20041;-75
2022/08/02 03:24:08;;;;;;;4.15;2.03;;;19.10;99.90;;;;;;5029733;28;20036;-74
2022/08/02 03:26:34;;;;;;;7.03;2.72;;;19.00;99.90;;;;;;5031352;28;20034;-74
2022/08/02 03:29:00;;;;;;;3.30;1.75;;;19.00;99.90;;;;;;5040339;28;20075;-75
2022/08/02 03:31:26;;;;;;;3.90;2.33;;;18.90;99.90;;;;;;5040631;28;20052;-75
2022/08/02 03:33:54;;;;;;;7.97;3.13;;;19.00;99.90;;;;;;5030775;28;20032;-74
2022/08/02 03:36:21;;;;;;;8.18;2.70;;;18.90;99.90;;;;;;5030733;28;20034;-76
2022/08/02 03:38:50;;;;;;;6.03;2.63;;;18.60;99.90;;;;;;5030641;28;20132;-75
2022/08/02 03:41:16;;;;;;;4.68;2.53;;;18.50;99.90;;;;;;5030571;28;20025;-75
2022/08/02 03:43:48;;;;;;;7.35;2.47;;;18.50;99.90;;;;;;5030447;28;20100;-75
2022/08/02 03:46:16;;;;;;;4.15;1.70;;;18.40;99.90;;;;;;5030549;28;20037;-75
2022/08/02 03:48:42;;;;;;;4.18;2.20;;;18.50;99.90;;;;;;5030523;28;20091;-75
2022/08/02 03:51:09;;;;;;;5.97;2.15;;;18.50;99.90;;;;;;5030404;28;20422;-74
2022/08/02 03:53:36;;;;;;;9.65;2.17;;;18.50;99.90;;;;;;5030401;28;20029;-74
2022/08/02 03:56:02;;;;;;;5.38;1.80;;;18.50;99.90;;;;;;5030114;28;20063;-74
2022/08/02 03:58:28;;;;;;;4.35;1.95;;;18.80;99.90;;;;;;5028342;28;20022;-74
2022/08/02 04:00:56;;;;;;;4.38;2.40;;;18.70;99.90;;;;;;5026977;28;20048;-74
2022/08/02 04:03:22;;;;;;;3.42;1.70;;;18.80;99.90;;;;;;5026797;28;20586;-74
2022/08/02 04:05:48;;;;;;;4.20;2.13;;;18.70;99.90;;;;;;5027289;28;20108;-74
2022/08/02 04:08:14;;;;;;;3.97;1.70;;;18.60;99.90;;;;;;5026860;28;20037;-74
2022/08/02 04:13:27;;;;;;;4.97;1.50;;;18.70;99.90;;;;;;5027087;28;20060;-74
2022/08/02 04:15:56;;;;;;;4.68;2.10;;;18.90;99.90;;;;;;5026786;28;20060;-74
2022/08/02 04:18:28;;;;;;;5.40;1.90;;;18.60;99.90;;;;;;5026928;28;20444;-73
2022/08/02 04:20:55;;;;;;;6.10;2.20;;;18.60;99.90;;;;;;5027473;28;20956;-74
2022/08/02 04:23:24;;;;;;;3.70;1.90;;;18.60;99.90;;;;;;5026804;28;20293;-74
2022/08/02 04:25:51;;;;;;;3.70;1.98;;;18.70;99.90;;;;;;5026974;28;20079;-74
2022/08/02 04:28:18;;;;;;;3.67;1.88;;;18.60;99.90;;;;;;5026717;28;20033;-74
2022/08/02 04:30:48;;;;;;;3.65;1.60;;;18.70;99.90;;;;;;5026478;28;20120;-74
2022/08/02 04:33:15;;;;;;;3.58;1.70;;;18.50;99.90;;;;;;5026415;28;20056;-74
2022/08/02 04:35:41;;;;;;;4.43;1.80;;;18.50;99.90;;;;;;5026588;28;20060;-74
2022/08/02 04:38:07;;;;;;;6.90;1.92;;;18.60;99.90;;;;;;5025989;28;20045;-74
2022/08/02 04:40:32;;;;;;;3.88;1.90;;;18.60;99.90;;;;;;5026134;28;20103;-74
2022/08/02 04:42:58;;;;;;;5.00;2.05;;;18.70;99.90;;;;;;5025919;28;20562;-74
2022/08/02 04:45:25;;;;;;;5.00;1.90;;;18.50;99.90;;;;;;5026326;28;20029;-74
2022/08/02 04:47:51;;;;;;;5.78;1.85;;;18.60;99.90;;;;;;5026108;28;20855;-74
2022/08/02 04:50:17;;;;;;;4.38;2.20;;;18.70;99.90;;;;;;5026138;28;20038;-74
2022/08/02 04:52:42;;;;;;;4.32;1.75;;;18.40;99.90;;;;;;5025526;28;20025;-74
2022/08/02 04:55:08;;;;;;;3.85;2.10;;;18.50;99.90;;;;;;5025946;28;20033;-74
2022/08/02 05:00:18;;;;;;;4.03;2.25;;;18.60;99.90;;;;;;5025891;28;20043;-74
2022/08/02 05:02:43;;;;;;;4.25;2.03;;;18.60;99.90;;;;;;5026378;28;20029;-74
2022/08/02 05:05:09;;;;;;;3.78;2.15;;;18.60;99.90;;;;;;5025541;28;20444;-74
2022/08/02 05:07:35;;;;;;;5.03;1.95;;;18.50;99.90;;;;;;5025742;28;20032;-74
2022/08/02 05:10:00;;;;;;;4.13;1.85;;;18.60;99.90;;;;;;5025632;28;20037;-74
2022/08/02 05:12:26;;;;;;;5.40;1.95;;;18.60;99.90;;;;;;5025991;28;20065;-74
2022/08/02 05:14:52;;;;;;;6.30;3.08;;;18.70;99.90;;;;;;5026011;28;20060;-74
2022/08/02 05:17:17;;;;;;;4.25;2.15;;;18.80;99.90;;;;;;5025948;28;20035;-74
2022/08/02 05:19:43;;;;;;;5.10;2.28;;;18.80;99.90;;;;;;5026259;28;20455;-74
2022/08/02 05:22:09;;;;;;;5.18;2.90;;;18.80;99.90;;;;;;5025930;28;20036;-74
2022/08/02 05:24:34;;;;;;;5.30;2.88;;;18.80;99.90;;;;;;5025840;28;20578;-74
2022/08/02 05:27:00;;;;;;;4.88;2.63;;;18.70;99.90;;;;;;5025971;28;20096;-74
2022/08/02 05:29:25;;;;;;;7.95;2.55;;;18.70;99.90;;;;;;5025915;28;20041;-74
2022/08/02 05:31:51;;;;;;;4.70;2.20;;;18.60;99.90;;;;;;5024657;28;20455;-74
2022/08/02 05:34:17;;;;;;;4.80;2.70;;;18.70;99.90;;;;;;5025750;28;20030;-74
2022/08/02 05:36:42;;;;;;;4.70;2.38;;;18.50;99.90;;;;;;5025610;28;20072;-74
2022/08/02 05:39:08;;;;;;;6.45;2.60;;;18.60;99.90;;;;;;5025728;28;20038;-73
2022/08/02 05:41:34;;;;;;;8.00;2.20;;;18.90;99.90;;;;;;5025661;28;20021;-74
2022/08/02 05:44:00;;;;;;;5.20;2.38;;;18.90;99.90;;;;;;5025633;28;20030;-73
2022/08/02 05:46:26;;;;;;;4.82;2.03;;;18.70;99.90;;;;;;5025752;28;20033;-74
2022/08/02 05:48:51;;;;;;;4.85;2.40;;;18.70;99.90;;;;;;5025628;28;20094;-74
2022/08/02 05:51:38;;;;;;;4.57;2.40;;;18.50;99.90;;;;;;5025806;28;20499;-74
2022/08/02 05:54:17;;;;;;;4.57;1.98;;;18.40;99.90;;;;;;5025690;28;20049;-74
2022/08/02 05:56:49;;;;;;;3.53;1.63;;;18.80;99.90;;;;;;5025623;28;20033;-74
2022/08/02 05:59:45;;;;;;;4.13;2.17;;;18.90;99.90;;;;;;5025562;28;20526;-73
2022/08/02 06:02:29;;;;;;;4.15;2.03;;;19.00;99.90;;;;;;5029754;28;20033;-73
2022/08/02 06:05:13;;;;;;;5.53;3.00;;;18.90;99.90;;;;;;5029650;28;20026;-73
2022/08/02 06:07:42;;;;;;;4.47;2.67;;;19.10;99.90;;;;;;5029449;28;20112;-73
2022/08/02 06:10:09;;;;;;;4.40;2.50;;;19.10;99.90;;;;;;5029036;28;20033;-74
2022/08/02 06:13:16;;;;;;;3.80;2.58;;;19.10;99.90;;;;;;5028924;28;20057;-73
2022/08/02 06:15:42;;;;;;;4.88;2.83;;;19.10;99.90;;;;;;5030132;28;20199;-73
2022/08/02 06:18:08;;;;;;;3.90;2.33;;;19.10;99.90;;;;;;5029194;28;20022;-74
2022/08/02 06:20:35;;;;;;;4.22;2.70;;;19.10;99.90;;;;;;5029123;28;20082;-75
2022/08/02 06:23:06;;;;;;;3.75;1.98;;;19.20;99.90;;;;;;5029115;28;20080;-73
2022/08/02 06:25:35;;;;;;;4.13;2.30;;;19.20;99.90;;;;;;5029222;28;20082;-73
2022/08/02 06:28:05;;;;;;;4.97;2.25;;;19.20;99.90;;;;;;5029159;28;20136;-73
2022/08/02 06:30:32;;;;;;;3.97;2.13;;;19.30;99.90;;;;;;5030217;28;20083;-73
2022/08/02 06:32:59;;;;;;;5.00;1.98;;;19.20;99.90;;;;;;5032813;28;20083;-73
2022/08/02 06:35:55;;;;;;;4.07;2.25;;;19.20;99.90;;;;;;5031962;28;20040;-74
2022/08/02 06:38:24;;;;;;;4.80;2.50;;;19.30;99.90;;;;;;5032406;28;20052;-74
2022/08/02 06:41:01;;;;;;;5.35;2.10;;;19.30;99.90;;;;;;5031764;28;20041;-74
2022/08/02 06:43:45;;;;;;;4.53;2.22;;;19.40;99.90;;;;;;5031590;28;20064;-73
2022/08/02 06:46:11;;;;;;;4.18;2.35;;;19.70;99.90;;;;;;5031996;28;20037;-73
2022/08/02 06:48:37;;;;;;;4.30;2.17;;;19.80;99.90;;;;;;5032104;28;20053;-73
2022/08/02 06:51:04;;;;;;;4.97;1.92;;;19.90;99.90;;;;;;5031610;28;20446;-74
2022/08/02 06:53:30;;;;;;;3.58;1.95;;;20.10;99.90;;;;;;5031539;28;20510;-74
2022/08/02 06:55:55;;;;;;;4.68;2.45;;;20.20;99.90;;;;;;5031502;28;20021;-74
2022/08/02 06:58:21;;;;;;;6.47;3.45;;;20.50;99.90;;;;;;5031382;28;20052;-73
2022/08/02 07:00:47;;;;;;;6.18;3.08;;;20.60;99.90;;;;;;5031437;28;20030;-73
2022/08/02 07:03:13;;;;;;;5.45;3.40;;;20.70;99.90;;;;;;5031371;28;20399;-73
2022/08/02 07:05:40;;;;;;;4.22;2.80;;;20.80;99.90;;;;;;5031254;28;20108;-73
2022/08/02 07:08:06;;;;;;;6.35;3.53;;;20.60;99.90;;;;;;5030922;28;20022;-73
2022/08/02 07:10:32;;;;;;;6.97;3.50;;;20.70;99.90;;;;;;5030836;28;20105;-73
2022/08/02 07:12:58;;;;;;;6.35;3.15;;;20.90;99.90;;;;;;5031677;28;20123;-73
2022/08/02 07:15:23;;;;;;;7.10;3.00;;;20.70;99.90;;;;;;5030974;28;20035;-74
2022/08/02 07:17:49;;;;;;;5.80;2.75;;;20.50;99.90;;;;;;5031305;28;20387;-73
2022/08/02 07:20:15;;;;;;;4.85;3.20;;;20.30;99.90;;;;;;5031350;28;20026;-74
2022/08/02 07:22:40;;;;;;;8.20;3.47;;;20.10;99.90;;;;;;5030932;28;20029;-73
2022/08/02 07:25:07;;;;;;;5.90;3.42;;;20.10;99.90;;;;;;5031030;28;20460;-72
2022/08/02 07:27:33;;;;;;;7.32;4.05;;;20.10;99.90;;;;;;5030943;28;20029;-73
2022/08/02 07:29:59;;;;;;;6.47;3.10;;;20.10;99.90;;;;;;5031002;28;20034;-72
2022/08/02 07:32:28;;;;;;;6.03;4.00;;;20.30;99.90;;;;;;5030812;28;20663;-73
2022/08/02 07:34:54;;;;;;;4.75;3.00;;;20.50;99.90;;;;;;5030577;28;20033;-73
2022/08/02 07:37:22;;;;;;;6.55;3.50;;;20.70;99.90;;;;;;5030999;28;20025;-72
2022/08/02 07:39:47;;;;;;;6.72;3.47;;;21.70;99.90;;;;;;5030738;28;20124;-76
2022/08/02 07:42:13;;;;;;;6.90;3.45;;;21.90;99.90;;;;;;5030824;28;20112;-76
2022/08/02 07:44:49;;;;;;;;;;;;;;;;;;;;;
2022/08/02 07:47:15;;;;;;;5.57;3.10;;;24.70;99.90;;;;;;5030772;28;20035;-75
2022/08/02 07:49:40;;;;;;;6.72;3.28;;;25.00;99.90;;;;;;5031270;28;20030;-76
2022/08/02 07:52:06;;;;;;;5.03;2.30;;;25.30;99.90;;;;;;5030791;28;20396;-75
2022/08/02 07:54:32;;;;;;;4.28;2.22;;;26.30;99.30;;;;;;5030920;28;20029;-75
2022/08/02 07:56:57;;;;;;;4.93;2.20;;;26.60;98.60;;;;;;5030681;28;20471;-76
2022/08/02 07:59:23;;;;;;;4.25;2.30;;;27.20;98.60;;;;;;5031094;28;20116;-73
2022/08/02 08:01:50;;;;;;;5.28;2.05;;;27.10;97.30;;;;;;5030868;28;20042;-77
2022/08/02 08:04:16;;;;;;;4.15;2.40;;;24.80;99.90;;;;;;5031027;28;20053;-77
2022/08/02 08:09:27;;;;;;;6.43;3.35;;;22.40;99.90;;;;;;5031999;28;20464;-76
2022/08/02 08:11:53;;;;;;;4.60;2.35;;;22.10;99.90;;;;;;5030286;28;20094;-77
2022/08/02 08:14:18;;;;;;;5.15;2.53;;;21.90;99.90;;;;;;5030562;28;20071;-75
2022/08/02 08:16:44;;;;;;;5.03;2.92;;;22.00;99.90;;;;;;5039458;28;20063;-75
2022/08/02 08:19:10;;;;;;;4.40;2.72;;;23.10;99.90;;;;;;5043003;28;20037;-74
2022/08/02 08:21:35;;;;;;;3.60;2.42;;;24.70;99.90;;;;;;5029979;28;20094;-75
2022/08/02 08:24:02;;;;;;;4.00;2.22;;;25.30;99.90;;;;;;5029712;28;20034;-74
2022/08/02 08:26:34;;;;;;;4.47;2.42;;;25.90;99.90;;;;;;5029944;28;20033;-76
2022/08/02 08:29:00;;;;;;;3.92;2.42;;;26.20;99.90;;;;;;5029748;28;20025;-76
2022/08/02 08:31:26;;;;;;;4.05;2.20;;;26.10;99.20;;;;;;5029638;28;20395;-75
2022/08/02 08:33:52;;;;;;;3.65;2.05;;;26.40;98.90;;;;;;5029977;28;20025;-75
2022/08/02 08:36:17;;;;;;;4.47;2.65;;;26.00;98.70;;;;;;5030027;28;20025;-75
2022/08/02 08:38:43;;;;;;;5.88;2.47;;;25.10;99.90;;;;;;5029526;28;20536;-75
2022/08/02 08:41:09;;;;;;;4.47;2.60;;;24.50;99.90;;;;;;5029612;28;20464;-75
2022/08/02 08:43:36;;;;;;;5.18;2.70;;;24.10;99.90;;;;;;5029660;28;20065;-75
2022/08/02 08:46:01;;;;;;;3.83;2.42;;;23.90;99.90;;;;;;5029105;28;20036;-75
2022/08/02 08:48:57;;;;;;;7.88;2.83;;;23.50;99.90;;;;;;5029448;28;20033;-75
2022/08/02 08:51:26;;;;;;;3.35;2.28;;;23.70;99.90;;;;;;5029220;28;20468;-74
2022/08/02 08:53:55;;;;;;;4.70;2.55;;;23.10;99.90;;;;;;5029164;28;20021;-74
2022/08/02 08:56:22;;;;;;;5.07;2.70;;;23.00;99.90;;;;;;5029080;28;20087;-74
2022/08/02 08:58:47;;;;;;;6.28;2.72;;;23.10;99.90;;;;;;5029260;28;20091;-74
2022/08/02 09:01:15;;;;;;;4.93;3.03;;;23.70;99.90;;;;;;5029358;28;20650;-74
2022/08/02 09:03:42;;;;;;;5.40;2.88;;;23.80;99.90;;;;;;5029164;28;20029;-74
2022/08/02 09:06:08;;;;;;;4.03;2.58;;;23.70;99.90;;;;;;5029189;28;20025;-74
2022/08/02 09:08:34;;;;;;;6.97;2.90;;;23.70;99.90;;;;;;5027746;28;20048;-74
2022/08/02 09:11:00;;;;;;;8.55;3.35;;;23.70;99.90;;;;;;5029063;28;20079;-74
2022/08/02 09:13:30;;;;;;;4.18;2.60;;;23.40;99.90;;;;;;5029067;28;20120;-74
2022/08/02 09:16:04;;;;;;;3.90;2.60;;;23.80;99.90;;;;;;5028931;28;20032;-75
2022/08/02 09:18:31;;;;;;;3.88;2.60;;;23.90;99.90;;;;;;5029033;28;20112;-74
2022/08/02 09:21:03;;;;;;;5.88;2.65;;;23.80;99.90;;;;;;5028938;28;20072;-74
2022/08/02 09:23:37;;;;;;;4.18;2.75;;;23.90;99.90;;;;;;5028825;28;20040;-74
2022/08/02 09:26:08;;;;;;;3.92;2.30;;;24.00;99.90;;;;;;5029274;28;20029;-74
2022/08/02 09:28:36;;;;;;;3.92;2.40;;;24.40;99.90;;;;;;5028717;28;20045;-74
2022/08/02 09:31:06;;;;;;;5.38;2.78;;;24.40;99.90;;;;;;5028895;28;20045;-74
2022/08/02 09:33:33;;;;;;;6.97;3.33;;;24.60;99.90;;;;;;5028574;28;20037;-75
2022/08/02 09:36:04;;;;;;;5.22;2.85;;;24.70;99.90;;;;;;5028414;28;20471;-74
2022/08/02 09:38:31;;;;;;;4.50;2.28;;;24.50;99.90;;;;;;5028420;28;20041;-74
2022/08/02 09:40:57;;;;;;;3.90;2.70;;;24.60;99.90;;;;;;5028600;28;20079;-74
2022/08/02 09:43:41;;;;;;;3.63;2.42;;;24.50;99.90;;;;;;5028474;28;20033;-74
2022/08/02 09:46:24;;;;;;;5.10;2.33;;;24.60;99.90;;;;;;5028517;28;20072;-75
2022/08/02 09:48:52;;;;;;;4.15;2.78;;;24.70;99.90;;;;;;5028746;28;20104;-75
2022/08/02 09:51:29;;;;;;;4.20;2.60;;;25.10;99.90;;;;;;5028308;28;20030;-75
2022/08/02 09:53:58;;;;;;;4.00;2.35;;;25.10;99.90;;;;;;5028536;28;20030;-75
2022/08/02 09:56:42;;;;;;;3.60;2.50;;;25.20;99.80;;;;;;5028502;28;20530;-75
2022/08/02 09:59:09;;;;;;;7.88;2.90;;;25.00;99.90;;;;;;5028172;28;20017;-75
2022/08/02 10:01:35;;;;;;;5.38;2.30;;;25.10;99.90;;;;;;5028403;28;20052;-74
2022/08/02 10:04:05;;;;;;;3.97;2.75;;;25.10;99.40;;;;;;5028877;28;20591;-74
2022/08/02 10:06:32;;;;;;;5.40;2.45;;;25.00;99.90;;;;;;5028730;28;20047;-74
2022/08/02 10:08:58;;;;;;;5.05;3.08;;;25.20;99.20;;;;;;5028333;28;20396;-74
2022/08/02 10:11:26;;;;;;;4.13;2.50;;;25.10;99.40;;;;;;5027774;28;20045;-74
2022/08/02 10:13:53;;;;;;;3.50;2.35;;;25.30;99.50;;;;;;5028179;28;20060;-74
2022/08/02 10:16:24;;;;;;;3.67;2.22;;;26.10;99.10;;;;;;5027957;28;20033;-74
2022/08/02 10:18:51;;;;;;;4.85;1.80;;;26.50;98.10;;;;;;5028526;28;20059;-74
2022/08/02 10:21:22;;;;;;;4.15;2.22;;;26.80;97.00;;;;;;5027947;28;20029;-74
2022/08/02 10:23:49;;;;;;;5.03;2.40;;;26.40;96.10;;;;;;5028335;28;20041;-74
2022/08/02 10:26:19;;;;;;;3.67;2.00;;;26.50;97.10;;;;;;5028198;28;20021;-74
2022/08/02 10:28:48;;;;;;;2.88;1.85;;;26.40;97.30;;;;;;5028151;28;20040;-74
2022/08/02 10:31:22;;;;;;;4.07;2.03;;;26.60;97.60;;;;;;5028108;28;20033;-74
2022/08/02 10:33:51;;;;;;;4.63;2.33;;;26.70;98.20;;;;;;5028166;28;20068;-74
2022/08/02 10:36:18;;;;;;;4.90;2.08;;;27.00;98.30;;;;;;5028149;28;20052;-74
2022/08/02 10:38:45;;;;;;;3.17;2.00;;;26.90;97.20;;;;;;5027888;28;20045;-74
2022/08/02 10:41:11;;;;;;;3.55;2.20;;;26.80;96.20;;;;;;5028202;28;20685;-75
2022/08/02 10:43:44;;;;;;;4.68;2.10;;;26.50;95.80;;;;;;5028510;28;20045;-74
2022/08/02 10:46:21;;;;;;;5.63;2.00;;;26.90;95.90;;;;;;5029359;28;20029;-74
2022/08/02 10:49:10;;;;;;;4.00;2.47;;;26.90;97.30;;;;;;5031494;28;20032;-74
2022/08/02 10:51:54;;;;;;;3.60;1.95;;;27.10;96.50;;;;;;5031411;28;20068;-74
2022/08/02 10:54:25;;;;;;;3.08;2.00;;;27.20;96.40;;;;;;5031526;28;20065;-74
2022/08/02 10:56:53;;;;;;;3.83;1.90;;;27.00;94.10;;;;;;5030205;28;20491;-74
2022/08/02 10:59:31;;;;;;;3.50;1.98;;;26.80;94.60;;;;;;5031218;28;20064;-74
2022/08/02 11:02:02;;;;;;;3.53;2.17;;;27.10;95.70;;;;;;5031254;28;20032;-75
2022/08/02 11:04:54;;;;;;;4.65;2.00;;;27.10;94.90;;;;;;5031393;28;20034;-74
2022/08/02 11:07:33;;;;;;;5.40;2.30;;;27.10;95.50;;;;;;5031340;28;20025;-74
2022/08/02 11:10:18;;;;;;;3.53;1.83;;;28.00;94.50;;;;;;5031167;28;20392;-74
2022/08/02 11:13:20;;;;;;;3.90;1.73;;;28.20;94.80;;;;;;5030987;28;20037;-75
2022/08/02 11:16:03;;;;;;;15.98;2.20;;;27.90;94.40;;;;;;5031260;28;20022;-75
2022/08/02 11:18:50;;;;;;;4.65;1.80;;;27.70;94.00;;;;;;5031224;28;20252;-75
2022/08/02 11:21:35;;;;;;;2.67;1.63;;;27.80;94.10;;;;;;5031318;28;20425;-75
2022/08/02 11:24:24;;;;;;;3.63;1.92;;;28.10;94.90;;;;;;5031358;28;20079;-75
2022/08/02 11:26:50;;;;;;;3.17;1.92;;;28.20;95.10;;;;;;5031034;28;20025;-75
2022/08/02 11:29:16;;;;;;;4.07;1.70;;;28.30;95.20;;;;;;5030641;28;20056;-75
2022/08/02 11:31:43;;;;;;;5.32;2.20;;;28.50;94.60;;;;;;5030639;28;20036;-75
2022/08/02 11:34:10;;;;;;;2.85;1.60;;;28.40;93.60;;;;;;5031074;28;20032;-75
2022/08/02 11:36:53;;;;;;;4.03;2.15;;;28.10;93.20;;;;;;5030766;28;20026;-75
2022/08/02 11:39:21;;;;;;;2.70;1.67;;;28.20;94.20;;;;;;5030782;28;20621;-75
2022/08/02 11:41:52;;;;;;;3.95;2.40;;;28.10;94.20;;;;;;5030734;28;20462;-75
2022/08/02 11:44:19;;;;;;;4.20;1.88;;;28.60;94.50;;;;;;5030673;28;20036;-75
2022/08/02 11:46:56;;;;;;;4.50;2.30;;;28.70;94.40;;;;;;5030615;28;20040;-75
2022/08/02 11:49:23;;;;;;;4.15;1.88;;;28.40;94.40;;;;;;5028995;28;20552;-75
2022/08/02 11:52:04;;;;;;;4.15;2.00;;;28.10;95.80;;;;;;5030619;28;20064;-75
2022/08/02 11:54:42;;;;;;;3.58;2.20;;;28.20;94.50;;;;;;5030684;28;20415;-75
2022/08/02 11:57:11;;;;;;;6.95;2.00;;;28.40;95.10;;;;;;5029954;28;20033;-75
2022/08/02 11:59:38;;;;;;;4.38;1.98;;;28.60;96.10;;;;;;5030408;28;20029;-75
2022/08/02 12:02:05;;;;;;;5.45;2.05;;;28.90;95.40;;;;;;5030447;28;20025;-75
2022/08/02 12:04:31;;;;;;;5.05;1.60;;;28.90;95.00;;;;;;5029929;28;20053;-75
2022/08/02 12:06:59;;;;;;;2.42;1.60;;;29.30;94.40;;;;;;5030193;28;20529;-75
2022/08/02 12:09:27;;;;;;;8.48;1.60;;;29.40;94.10;;;;;;5029964;28;20033;-75
2022/08/02 12:11:54;;;;;;;2.33;1.42;;;29.10;93.60;;;;;;5030008;28;20029;-74
2022/08/02 12:14:20;;;;;;;3.15;1.45;;;29.20;93.30;;;;;;5030276;28;20065;-75
2022/08/02 12:19:48;;;;;;;3.78;1.63;;;29.30;93.80;;;;;;5026592;28;20036;-75
2022/08/02 12:22:25;;;;;;;2.40;1.40;;;29.50;93.40;;;;;;5028750;28;20041;-75
2022/08/02 12:24:55;;;;;;;3.05;1.40;;;29.20;93.70;;;;;;5029550;28;20033;-75
2022/08/02 12:27:40;;;;;;;4.60;1.33;;;29.20;93.30;;;;;;5029965;28;20022;-75
2022/08/02 12:30:10;;;;;;;2.88;1.48;;;29.50;93.70;;;;;;5029758;28;20029;-75
2022/08/02 12:32:36;;;;;;;4.32;1.30;;;29.50;92.80;;;;;;5029940;28;20030;-75
2022/08/02 12:35:18;;;;;;;3.03;1.48;;;29.30;91.50;;;;;;5029727;28;20079;-75
2022/08/02 12:37:46;;;;;;;2.05;1.10;;;29.20;93.30;;;;;;5029680;28;20074;-75
2022/08/02 12:40:19;;;;;;;1.75;0.98;;;28.80;92.60;;;;;;5029737;28;20041;-75
2022/08/02 12:42:46;;;;;;;2.53;1.30;;;29.20;92.00;;;;;;5029256;28;20497;-75
2022/08/02 12:45:12;;;;;;;3.13;1.15;;;29.70;91.80;;;;;;5029310;28;20040;-75
2022/08/02 12:47:50;;;;;;;2.15;1.13;;;29.80;91.70;;;;;;5028996;28;20038;-74
2022/08/02 12:50:22;;;;;;;1.77;1.30;;;29.90;90.80;;;;;;5029050;28;20531;-75
2022/08/02 12:52:49;;;;;;;3.55;2.10;;;30.00;91.00;;;;;;5029133;28;20057;-75
2022/08/02 12:55:24;;;;;;;3.45;1.25;;;29.90;90.90;;;;;;5029169;28;20063;-75
2022/08/02 12:58:03;;;;;;;3.70;1.63;;;30.00;91.50;;;;;;5029221;28;20056;-75
2022/08/02 13:00:35;;;;;;;3.47;1.85;;;30.10;93.20;;;;;;5029200;28;20482;-75
2022/08/02 13:03:02;;;;;;;3.08;1.40;;;30.10;92.30;;;;;;5028677;28;20041;-75
2022/08/02 13:05:28;;;;;;;2.22;1.40;;;29.90;91.90;;;;;;5029061;28;20036;-75
2022/08/02 13:07:55;;;;;;;3.20;1.52;;;30.00;92.10;;;;;;5028419;28;20530;-75
2022/08/02 13:10:22;;;;;;;3.05;1.30;;;30.30;93.20;;;;;;5028513;28;20052;-75
2022/08/02 13:12:50;;;;;;;2.55;1.52;;;30.10;91.60;;;;;;5028664;28;20112;-75